Tiempo atmosférico en la estación meteorológica de Alcañices, Zamora (840 m.)



Fecha
DESCASC
Temp. máxima en grados centígrados (hora)
DESCASC
Temp. mínima en grados centígrados (hora)
DESCASC
Temp. media en grados centígrados
DESCASC
Racha de viento máxima en m/sg (hora)
DESCASC
Velocidad máxima media en intervalos de 10 minutos(hora)
DESCASC
Precipitaciones diarias en mm
DESCASC
Precipitaciones de 00:00 a 06:00 en mm
DESCASC
Precipitaciones de 06:00 a 12:00 en mm
DESCASC
Precipitaciones de 12:00 a 18:00 en mm
DESCASC
Precipitaciones de 18:00 a 24:00 en mm
DESCASC
19-04-2018 23.1 (17:20) 8.5 (07:00) 15.8 10.28 (18:00) 7.22 (14:40) 0 0 0 0 0
18-04-2018 23.6 (16:40) 6.3 (06:50) 15 10.28 (13:50) 5.83 (13:50) 0 0 0 0 0
17-04-2018 20.6 (18:00) 4.5 (06:50) 12.6 6.67 (12:30) 4.17 (18:10) 0 0 0 0 0
16-04-2018 14.9 (18:40) 1.1 (08:00) 8 8.61 (15:00) 5.28 (17:40) 0 0 0 0 0
15-04-2018 11.9 (16:10) 5.1 (00:00) 8.5 10.56 (21:00) 7.22 (14:30) 2 0.6 0.6 0 0.8
14-04-2018 14 (19:10) 3.3 (00:00) 8.6 8.61 (15:50) 5.56 (17:00) 0.2 0.2 0 0 0
13-04-2018 13.5 (17:40) 3 (00:00) 8.3 10 (16:00) 7.22 (16:00) 4.4 0.2 0 0.4 3.8
12-04-2018 8.5 (13:20) 2.5 (00:00) 5.5 10 (15:00) 6.94 (15:20) 5 0 0 1.2 3.8
11-04-2018 12 (17:00) -1.8 (-00:0) 5.1 13.89 (18:20) 9.72 (18:10) 0 0 0 0 0
10-04-2018 7.3 (14:20) 1.4 (00:00) 4.4 15 (07:40) 9.72 (07:30) 10.8 3.4 5.2 2 0.2
09-04-2018 7.9 (18:50) 1.4 (00:00) 4.7 7.22 (23:30) 5 (23:40) 6.8 3.2 1.2 2 0.4
08-04-2018 11.8 (15:50) 2.7 (00:00) 7.3 13.33 (16:00) 7.78 (16:10) 1.4 0 0.2 0.2 1
07-04-2018 12.1 (17:00) 3.6 (00:00) 7.9 11.11 (17:40) 6.39 (17:40) 0.4 0.2 0 0.2 0
06-04-2018 16.9 (16:00) 5.1 (00:00) 11 16.39 (16:40) 10.28 (18:00) 3.4 0 0 0 3.4
05-04-2018 16.4 (18:50) 0 (00:00) 8.2 10.56 (16:10) 5.83 (23:30) 0 0 0 0 0
04-04-2018 11.7 (17:10) 4.3 (00:00) 8 16.67 (17:40) 10.56 (15:10) 3.8 1 1.4 1.4 0
03-04-2018 9.8 (13:00) 4.4 (00:00) 7.1 19.44 (13:20) 11.67 (13:20) 14.2 2 3.8 3.4 5
02-04-2018 13.1 (13:10) 8 (00:00) 10.6 14.17 (13:30) 8.89 (12:40) 2.2 0 0 1 1.2
01-04-2018 17.3 (17:20) 2.5 (00:00) 9.9 11.67 (16:20) 7.78 (16:10) 0 0 0 0 0
31-03-2018 10.8 (17:00) 0.7 (00:00) 5.8 11.94 (14:20) 7.5 (01:30) 0.2 0.2 0 0 0
30-03-2018 6.9 (13:50) -0.2 (00:00) 3.4 16.11 (14:40) 11.11 (14:40) 10.6 2 0 4.2 4.4
29-03-2018 8.9 (14:10) 1 (00:00) 4.9 14.44 (17:50) 9.44 (17:50) 9.4 0 0 0 9.4
28-03-2018 13 (16:00) 3.3 (00:00) 8.1 12.5 (16:10) 8.06 (11:30) 0.2 0 0 0 0.2
27-03-2018 20.5 (17:10) 4.6 (00:00) 12.5 13.33 (18:50) 9.72 (18:50) 0 0 0 0 0
26-03-2018 13.9 (17:20) -1.9 (-00:0) 6 8.89 (17:20) 5.56 (18:30) 0 0 0 0 0
25-03-2018 13.3 (16:50) 0.2 (00:00) 6.8 11.39 (17:00) 6.94 (17:00) 0 0 0 0 0
24-03-2018 8.2 (15:10) 0.4 (00:00) 4.3 20.56 (10:50) 12.78 (13:20) 0 0 0 0 0
23-03-2018 9.7 (16:10) 1.9 (00:00) 5.8 17.22 (21:30) 10.83 (21:30) 5.8 0 0 0.2 5.6

Gráficas

Temp. máximas Temp. mínimas Temp. medias Precipitaciones Rachas de viento máximas Velocidades máximas media en intervalos de 10 minutos

Datos horarios

Fecha y hora oficial Temperatura (ºC) Velocidad del viento (km/h) Dirección del viento Racha (km/h) Dirección de racha Precipitación (mm) Presión (hPa) Tendencia (hPa) Humedad (%)
2018-04-21 23:00:00 11 13 Nordeste 17 Nordeste 0 -- -- 89
2018-04-21 22:00:00 12.7 14 Nordeste 22 Nordeste 0 -- -- 83
2018-04-21 21:00:00 12.9 11 Norte 24 Sudoeste 0 -- -- 85
2018-04-21 20:00:00 14.7 19 Sudoeste 30 Sudoeste 0 -- -- 74
2018-04-21 19:00:00 16.2 6 Noroeste 11 Noroeste 0 -- -- 62
2018-04-21 18:00:00 16.2 4 Sudeste 17 Sudeste 0 -- -- 61
2018-04-21 17:00:00 15.8 12 Sudeste 35 Este 0 -- -- 64
2018-04-21 16:00:00 15.4 24 Nordeste 44 Este 0 -- -- 67
2018-04-21 15:00:00 15.3 26 Este 36 Nordeste 0 -- -- 67
2018-04-21 14:00:00 13.4 27 Nordeste 40 Nordeste 0 -- -- 78
2018-04-21 13:00:00 13.1 21 Este 32 Este 0 -- -- 76
2018-04-21 12:00:00 12.8 24 Nordeste 35 Este 0 -- -- 75
2018-04-21 11:00:00 12.7 24 Nordeste 32 Este 0 -- -- 73
2018-04-21 10:00:00 11.9 23 Nordeste 29 Nordeste 0 -- -- 78
2018-04-21 09:00:00 10.8 16 Nordeste 21 Nordeste 0 -- -- 83
2018-04-21 08:00:00 8.4 14 Nordeste 22 Nordeste 0 -- -- 91
2018-04-21 07:00:00 7.8 15 Este 22 Nordeste 0 -- -- 93
2018-04-21 06:00:00 8.5 17 Nordeste 19 Nordeste 0 -- -- 90
2018-04-21 05:00:00 9.1 10 Este 18 Este 0 -- -- 86
2018-04-21 04:00:00 9.7 12 Nordeste 18 Nordeste 0 -- -- 83
2018-04-21 03:00:00 10.7 13 Este 19 Este 0 -- -- 76
2018-04-21 02:00:00 11 12 Este 17 Este 0 -- -- 74
2018-04-21 01:00:00 12.2 16 Este 24 Este 0 -- -- 69
2018-04-21 00:00:00 13.3 18 Sudeste 23 Este 0 -- -- 64
2018-04-20 23:00:00 14.1 17 Este 24 Este 0 -- -- 61
2018-04-20 22:00:00 13.5 14 Este 21 Este 0 -- -- 63
2018-04-20 21:00:00 16.2 16 Este 31 Sudeste 0 -- -- 52
2018-04-20 20:00:00 19 24 Sudeste 35 Sudeste 0 -- -- 45
2018-04-20 19:00:00 20.7 19 Este 30 Sudeste 0 -- -- 40
2018-04-20 18:00:00 20 20 Este 37 Este 0 -- -- 47
2018-04-20 17:00:00 19.3 24 Este 42 Este 0 -- -- 49
2018-04-20 16:00:00 20.5 23 Este 42 Este 0 -- -- 48
2018-04-20 15:00:00 19.7 28 Este 42 Este 0 -- -- 52
2018-04-20 14:00:00 18.4 28 Nordeste 42 Nordeste 0 -- -- 52
2018-04-20 13:00:00 17.9 30 Nordeste 45 Este 0 -- -- 53
2018-04-20 12:00:00 16.6 31 Nordeste 45 Este 0 -- -- 58
2018-04-20 11:00:00 15.1 33 Este 44 Este 0 -- -- 63
2018-04-20 10:00:00 13.6 31 Nordeste 41 Este 0 -- -- 67
2018-04-20 09:00:00 11.8 23 Nordeste 29 Nordeste 0 -- -- 75
2018-04-20 08:00:00 9.6 23 Nordeste 28 Nordeste 0 -- -- 83
2018-04-20 07:00:00 9.6 18 Nordeste 26 Nordeste 0 -- -- 84
2018-04-20 06:00:00 9.4 21 Nordeste 26 Nordeste 0 -- -- 84
2018-04-20 05:00:00 10.1 19 Nordeste 23 Nordeste 0 -- -- 82
2018-04-20 04:00:00 10.3 16 Nordeste 18 Nordeste 0 -- -- 79
2018-04-20 03:00:00 10.2 11 Este 20 Este 0 -- -- 79
2018-04-20 02:00:00 11.3 18 Este 21 Este 0 -- -- 76
2018-04-20 01:00:00 11.8 17 Nordeste 19 Nordeste 0 -- -- 74
2018-04-20 00:00:00 13.2 14 Este 17 Este 0 -- -- 70
2018-04-19 23:00:00 14.7 9 Nordeste 12 Nordeste 0 -- -- 62
2018-04-19 22:00:00 16 9 Nordeste 14 Nordeste 0 -- -- 56
2018-04-19 21:00:00 18.1 12 Nordeste 23 Este 0 -- -- 50
2018-04-19 20:00:00 21.2 17 Este 29 Este 0 -- -- 43
2018-04-19 19:00:00 22.1 20 Este 34 Este 0 -- -- 40
2018-04-19 18:00:00 22.5 22 Este 37 Este 0 -- -- 42
2018-04-19 17:00:00 22.8 23 Este 37 Este 0 -- -- 39
2018-04-19 16:00:00 22.4 20 Este 32 Este 0 -- -- 37
2018-04-19 15:00:00 21.4 25 Este 36 Este 0 -- -- 46
2018-04-19 14:00:00 20.8 24 Nordeste 34 Nordeste 0 -- -- 48
2018-04-19 13:00:00 20.4 20 Nordeste 26 Nordeste 0 -- -- 51
2018-04-19 12:00:00 19.5 15 Nordeste 23 Este 0 -- -- 57
2018-04-19 11:00:00 16.8 20 Nordeste 27 Nordeste 0 -- -- 65
2018-04-19 10:00:00 15.2 17 Este 24 Este 0 -- -- 67
2018-04-19 09:00:00 12.8 15 Este 21 Este 0 -- -- 77
2018-04-19 08:00:00 10.2 14 Nordeste 15 Nordeste 0 -- -- 83
2018-04-19 07:00:00 8.5 5 Nordeste 17 Nordeste 0 -- -- 89
2018-04-19 06:00:00 9.4 17 Nordeste 21 Nordeste 0 -- -- 84
2018-04-19 05:00:00 12 7 Norte 12 Norte 0 -- -- 72
2018-04-19 04:00:00 10.5 6 Norte 9 Norte 0 -- -- 78
2018-04-19 03:00:00 12.9 3 Sudeste 12 Nordeste 0 -- -- 67
2018-04-19 02:00:00 15.2 6 Sudoeste 8 Sudoeste 0 -- -- 56
2018-04-19 01:00:00 14.8 8 Sudoeste 13 Sur 0 -- -- 56
2018-04-19 00:00:00 15.2 7 Sudeste 11 Sudeste 0 -- -- 54
2018-04-18 23:00:00 16.8 4 Sur 5 Sur 0 -- -- 49
2018-04-18 22:00:00 17.6 3 Sur 8 Sur 0 -- -- 48
2018-04-18 21:00:00 20.3 5 Sur 17 Sudoeste 0 -- -- 42
2018-04-18 20:00:00 22.9 12 Sur 23 Sudoeste 0 -- -- 36
2018-04-18 19:00:00 23.5 14 Sur 27 Sur 0 -- -- 31
2018-04-18 18:00:00 23.4 18 Sur 32 Sudoeste 0 -- -- 35
2018-04-18 17:00:00 22.9 17 Sur 29 Sudoeste 0 -- -- 37
2018-04-18 16:00:00 22.6 12 Sudoeste 29 Sudoeste 0 -- -- 37
2018-04-18 15:00:00 22 15 Oeste 33 Sudoeste 0 -- -- 40
2018-04-18 14:00:00 21.4 19 Sudoeste 37 Sur 0 -- -- 37
2018-04-18 13:00:00 20.9 15 Sur 28 Sur 0 -- -- 39
2018-04-18 12:00:00 20.5 6 Nordeste 20 Este 0 -- -- 47
2018-04-18 11:00:00 17.4 16 Este 21 Este 0 -- -- 54
2018-04-18 10:00:00 15 9 Nordeste 19 Nordeste 0 -- -- 58
2018-04-18 09:00:00 11.8 10 Este 12 Este 0 -- -- 69
2018-04-18 08:00:00 9 5 Este 6 Este 0 -- -- 73
2018-04-18 07:00:00 6.3 0 Calma 14 Este 0 -- -- 85
2018-04-18 06:00:00 8 12 Este 14 Este 0 -- -- 78
2018-04-18 05:00:00 7.8 7 Nordeste 12 Nordeste 0 -- -- 78
2018-04-18 04:00:00 8.3 13 Nordeste 16 Nordeste 0 -- -- 77
2018-04-18 03:00:00 9 13 Nordeste 15 Nordeste 0 -- -- 72
2018-04-18 02:00:00 9.8 13 Nordeste 14 Nordeste 0 -- -- 71
2018-04-18 01:00:00 10.4 9 Nordeste 11 Nordeste 0 -- -- 66
2018-04-18 00:00:00 11.5 8 Nordeste 10 Nordeste 0 -- -- 66
2018-04-17 23:00:00 12.6 3 Noroeste 4 Noroeste 0 -- -- 57
2018-04-17 22:00:00 13.8 3 Noroeste 9 Oeste 0 -- -- 57
2018-04-17 21:00:00 16.6 5 Oeste 14 Sudoeste 0 -- -- 51
2018-04-17 20:00:00 19.3 10 Sudoeste 19 Sudoeste 0 -- -- 36
2018-04-17 19:00:00 20.2 11 Sudoeste 24 Sur 0 -- -- 35
2018-04-17 18:00:00 20.6 13 Sur 23 Sur 0 -- -- 34
2018-04-17 17:00:00 19.7 13 Sur 22 Sudoeste 0 -- -- 34
2018-04-17 16:00:00 19.2 12 Sur 22 Sudoeste 0 -- -- 38
2018-04-17 15:00:00 17.9 10 Sudoeste 22 Sudoeste 0 -- -- 40
2018-04-17 14:00:00 16.7 11 Sur 21 Sur 0 -- -- 47
2018-04-17 13:00:00 15.8 9 Sur 24 Sudoeste 0 -- -- 58
2018-04-17 12:00:00 14.1 8 Sur 21 Sur 0 -- -- 60
2018-04-17 11:00:00 13.4 6 Sudoeste 14 Sudoeste 0 -- -- 66
2018-04-17 10:00:00 10.9 6 Sudoeste 10 Oeste 0 -- -- 74
2018-04-17 09:00:00 10 3 Noroeste 5 Sur 0 -- -- 75
2018-04-17 08:00:00 5.4 5 Sur 7 Sur 0 -- -- 88
2018-04-17 07:00:00 5 4 Sur 9 Sudoeste 0 -- -- 92
2018-04-17 06:00:00 6.4 5 Sudoeste 6 Sudoeste 0 -- -- 85
2018-04-17 05:00:00 5.7 4 Sudeste 5 Sur 0 -- -- 88
2018-04-17 04:00:00 6.9 5 Sudoeste 8 Sudoeste 0 -- -- 83
2018-04-17 03:00:00 7.9 8 Sudoeste 9 Sudoeste 0 -- -- 78
2018-04-17 02:00:00 7.5 5 Sudoeste 13 Sudoeste 0 -- -- 78
2018-04-17 01:00:00 7.8 12 Sudoeste 14 Sudoeste 0 -- -- 76
2018-04-17 00:00:00 8.9 7 Sudoeste 9 Sudoeste 0 -- -- 71
2018-04-16 23:00:00 9.1 4 Sur 11 Oeste 0 -- -- 68
2018-04-16 22:00:00 10.3 9 Oeste 13 Sudoeste 0 -- -- 63
2018-04-16 21:00:00 11.7 10 Sudoeste 21 Oeste 0 -- -- 56
2018-04-16 20:00:00 14.1 14 Sudoeste 24 Sudoeste 0 -- -- 49
2018-04-16 19:00:00 14.5 14 Sudoeste 29 Sudoeste 0 -- -- 48
2018-04-16 18:00:00 14.6 14 Sudoeste 30 Sudoeste 0 -- -- 44
2018-04-16 17:00:00 13.9 15 Sudoeste 29 Oeste 0 -- -- 46
2018-04-16 16:00:00 13.2 14 Sudoeste 31 Sudoeste 0 -- -- 48
2018-04-16 15:00:00 12.4 15 Sudoeste 31 Sur 0 -- -- 56
2018-04-16 14:00:00 11.8 14 Sur 26 Sudoeste 0 -- -- 58
2018-04-16 13:00:00 10.3 12 Sudoeste 23 Sudoeste 0 -- -- 63
2018-04-16 12:00:00 9.6 8 Oeste 19 Sudoeste 0 -- -- 65
2018-04-16 11:00:00 7.9 14 Oeste 24 Oeste 0 -- -- 72
2018-04-16 10:00:00 5.9 9 Sudoeste 14 Sudoeste 0 -- -- 94
2018-04-16 09:00:00 3.9 7 Sudoeste 13 Oeste 0 -- -- 98
2018-04-16 08:00:00 1.1 4 Oeste 15 Sudoeste 0 -- -- 100
2018-04-16 07:00:00 2.9 11 Sudoeste 20 Sudoeste 0 -- -- 100
2018-04-16 06:00:00 3 10 Sudoeste 19 Sudoeste 0 -- -- 100
2018-04-16 05:00:00 2.9 13 Sudoeste 20 Sudoeste 0 -- -- 100
2018-04-16 04:00:00 2.7 15 Sudoeste 17 Sudoeste 0 -- -- 99
2018-04-16 03:00:00 4 12 Oeste 23 Oeste 0 -- -- 95
2018-04-16 02:00:00 4.7 15 Oeste 26 Oeste 0 -- -- 94
2018-04-16 01:00:00 4.7 12 Sudoeste 20 Sudoeste 0 -- -- 96
2018-04-16 00:00:00 5.1 16 Sudoeste 19 Oeste 0 -- -- 96
2018-04-15 23:00:00 5.2 12 Sudoeste 14 Sudoeste 0 -- -- 94
2018-04-15 22:00:00 5.9 4 Sudoeste 24 Noroeste 0.2 -- -- 92
2018-04-15 21:00:00 7.5 19 Oeste 38 Sudoeste 0.2 -- -- 87
2018-04-15 20:00:00 8.3 17 Sudoeste 28 Sudoeste 0.4 -- -- 92
2018-04-15 19:00:00 10.3 20 Sudoeste 28 Sudoeste 0 -- -- 73
2018-04-15 18:00:00 11 16 Sudoeste 30 Sudoeste 0 -- -- 70
2018-04-15 17:00:00 11.2 23 Sudoeste 36 Sudoeste 0 -- -- 65
2018-04-15 16:00:00 11.6 22 Sudoeste 37 Sudoeste 0 -- -- 69
2018-04-15 15:00:00 10.8 22 Sudoeste 37 Sudoeste 0 -- -- 78
2018-04-15 14:00:00 10.8 22 Sudoeste 35 Sudoeste 0 -- -- 81
2018-04-15 13:00:00 9.5 17 Sudoeste 27 Sudoeste 0 -- -- 95
2018-04-15 12:00:00 9 19 Sudoeste 34 Sudoeste 0 -- -- 100
2018-04-15 11:00:00 8.2 19 Sudoeste 32 Sudoeste 0 -- -- 100
2018-04-15 10:00:00 7.8 19 Sudoeste 28 Sudoeste 0.2 -- -- 100
2018-04-15 09:00:00 7.3 13 Sudoeste 23 Sudoeste 0 -- -- 100
2018-04-15 08:00:00 6.9 12 Sudoeste 22 Sudoeste 0.2 -- -- 100
2018-04-15 07:00:00 6.8 13 Sudoeste 32 Sudoeste 0.2 -- -- 100
2018-04-15 06:00:00 6.7 19 Sudoeste 32 Sudoeste 0 -- -- 100
2018-04-15 05:00:00 6.8 19 Sudoeste 32 Sudoeste 0.2 -- -- 99
2018-04-15 04:00:00 7.4 17 Sudoeste 26 Sudoeste 0.4 -- -- 99
2018-04-15 03:00:00 7.8 12 Sudoeste 18 Sudoeste 0 -- -- 94
2018-04-15 02:00:00 8.5 14 Sudoeste 22 Oeste 0 -- -- 88
2018-04-15 01:00:00 8.8 13 Sudoeste 19 Sudoeste 0 -- -- 85
2018-04-15 00:00:00 8.8 11 Sudoeste 19 Oeste 0 -- -- 82
2018-04-14 23:00:00 8.9 12 Sudoeste 19 Sudoeste 0 -- -- 78
2018-04-14 22:00:00 9.1 9 Sudoeste 16 Sudoeste 0 -- -- 76
2018-04-14 21:00:00 10.4 10 Sudoeste 23 Sudoeste 0 -- -- 70
2018-04-14 20:00:00 13.1 16 Sudoeste 24 Sudoeste 0 -- -- 56
2018-04-14 19:00:00 12.9 14 Sudoeste 29 Sudoeste 0 -- -- 57
2018-04-14 18:00:00 13.7 16 Sudoeste 31 Sudoeste 0 -- -- 58
2018-04-14 17:00:00 13 20 Sudoeste 31 Sudoeste 0 -- -- 67
2018-04-14 16:00:00 12.8 15 Sudoeste 31 Sur 0 -- -- 65
2018-04-14 15:00:00 13.3 14 Sur 29 Sur 0 -- -- 65
2018-04-14 14:00:00 12.3 20 Sur 27 Sudoeste 0 -- -- 77
2018-04-14 13:00:00 10.6 14 Sur 19 Sudoeste 0 -- -- 81
2018-04-14 12:00:00 10.9 10 Sur 18 Sur 0 -- -- 84
2018-04-14 11:00:00 9 2 Sur 6 Norte 0 -- -- 97
2018-04-14 10:00:00 6.8 2 Nordeste 8 Nordeste 0 -- -- 100
2018-04-14 09:00:00 6 0 Calma 9 Oeste 0 -- -- 100
2018-04-14 08:00:00 4.9 3 Oeste 5 Noroeste 0 -- -- 100
2018-04-14 07:00:00 4.9 3 Sudeste 6 Este 0 -- -- 100
2018-04-14 06:00:00 4.9 2 Este 9 Este 0 -- -- 100
2018-04-14 05:00:00 4.8 5 Este 6 Este 0 -- -- 100
2018-04-14 04:00:00 3.7 0 Calma 8 Nordeste 0 -- -- 100
2018-04-14 03:00:00 4.6 6 Nordeste 9 Nordeste 0 -- -- 100
2018-04-14 02:00:00 5.1 6 Este 8 Este 0 -- -- 100
2018-04-14 01:00:00 5.2 3 Noroeste 10 Este 0.2 -- -- 100
2018-04-14 00:00:00 6.2 8 Este 9 Este 0 -- -- 100
2018-04-13 23:00:00 7.2 0 Calma 7 Oeste 0 -- -- 99
2018-04-13 22:00:00 7.7 5 Sudoeste 8 Noroeste 0.4 -- -- 95
2018-04-13 21:00:00 8.1 5 Noroeste 8 Noroeste 0.2 -- -- 97
2018-04-13 20:00:00 8.5 5 Sudeste 28 Norte 3.2 -- -- 93
2018-04-13 19:00:00 9.7 15 Noroeste 27 Norte 0 -- -- 84
2018-04-13 18:00:00 12.4 14 Oeste 21 Noroeste 0 -- -- 65
2018-04-13 17:00:00 12 9 Oeste 33 Noroeste 0.4 -- -- 72
2018-04-13 16:00:00 10 26 Noroeste 36 Noroeste 0 -- -- 83
2018-04-13 15:00:00 11.2 14 Oeste 22 Sudoeste 0 -- -- 75
2018-04-13 14:00:00 10.5 9 Oeste 19 Sudoeste 0 -- -- 74
2018-04-13 13:00:00 10.1 3 Noroeste 16 Oeste 0 -- -- 73
2018-04-13 12:00:00 7.6 7 Sudoeste 14 Oeste 0 -- -- 87
2018-04-13 11:00:00 6 8 Sudoeste 13 Oeste 0 -- -- 97
2018-04-13 10:00:00 4.8 8 Oeste 14 Oeste 0 -- -- 100
2018-04-13 09:00:00 4.1 4 Oeste 8 Oeste 0 -- -- 100
2018-04-13 08:00:00 3.4 5 Oeste 8 Sudoeste 0 -- -- 100
2018-04-13 07:00:00 3.3 5 Oeste 7 Oeste 0 -- -- 100
2018-04-13 06:00:00 3.6 4 Sudoeste 5 Sudoeste 0 -- -- 100
2018-04-13 05:00:00 3.7 2 Oeste 4 Sudoeste 0 -- -- 100
2018-04-13 04:00:00 3.7 2 Sur 5 Este 0 -- -- 100
2018-04-13 03:00:00 3.4 5 Este 6 Este 0 -- -- 100
2018-04-13 02:00:00 3 2 Sudeste 5 Este 0 -- -- 100
2018-04-13 01:00:00 3.2 -- -- -- -- 0.2 -- -- 100
2018-04-13 00:00:00 3.6 8 Sudeste 14 Sudeste 0.4 -- -- 100
2018-04-12 23:00:00 3.8 10 Sudeste 14 Sudeste 0.8 -- -- 99
2018-04-12 22:00:00 4.4 6 Sur 13 Sudoeste 0.8 -- -- 98
2018-04-12 21:00:00 4.6 8 Sudoeste 22 Sur 0.4 -- -- 98
2018-04-12 20:00:00 5 14 Sur 23 Sur 0.6 -- -- 96
2018-04-12 19:00:00 5.4 15 Sudeste 27 Sur 0.8 -- -- 97
2018-04-12 18:00:00 6 14 Sudeste 30 Sur 0.6 -- -- 95
2018-04-12 17:00:00 6.5 17 Sur 27 Sur 0.4 -- -- 94
2018-04-12 16:00:00 7.1 17 Sur 36 Sur 0.2 -- -- 93
2018-04-12 15:00:00 7 22 Sur 36 Sur 0 -- -- 89
2018-04-12 14:00:00 8.2 15 Sur 24 Sudeste 0 -- -- 77
2018-04-12 13:00:00 7 14 Sudeste 27 Sur 0 -- -- 83
2018-04-12 12:00:00 7.6 15 Sur 24 Sur 0 -- -- 81
2018-04-12 11:00:00 5.9 13 Sur 22 Sudoeste 0 -- -- 94
2018-04-12 10:00:00 5.2 12 Sudoeste 21 Sudoeste 0 -- -- 100
2018-04-12 09:00:00 4.4 10 Sur 21 Sur 0 -- -- 100
2018-04-12 08:00:00 4 8 Sudoeste 18 Sudoeste 0 -- -- 100
2018-04-12 07:00:00 3.8 10 Sudoeste 18 Sudoeste 0 -- -- 100
2018-04-12 06:00:00 3.4 14 Sudoeste 22 Oeste 0 -- -- 100
2018-04-12 05:00:00 2.9 14 Sudoeste 26 Sudoeste 0 -- -- 100
2018-04-12 04:00:00 3 19 Sudoeste 26 Sudoeste 0 -- -- 100
2018-04-12 03:00:00 2.7 13 Sudoeste 24 Oeste 0 -- -- 100
2018-04-12 02:00:00 2.9 11 Sudoeste 20 Oeste 0 -- -- 99
2018-04-12 01:00:00 3.5 14 Sudoeste 20 Oeste 0 -- -- 97
2018-04-12 00:00:00 4.3 12 Oeste 21 Oeste 0 -- -- 93
2018-04-11 23:00:00 5 15 Oeste 24 Oeste 0 -- -- 88
2018-04-11 22:00:00 5.6 17 Oeste 29 Oeste 0 -- -- 86
2018-04-11 21:00:00 6.7 20 Oeste 41 Oeste 0 -- -- 82
2018-04-11 20:00:00 9 24 Oeste 44 Oeste 0 -- -- 70
2018-04-11 19:00:00 10.2 29 Oeste 50 Noroeste 0 -- -- 64
2018-04-11 18:00:00 10.9 33 Oeste 48 Oeste 0 -- -- 59
2018-04-11 17:00:00 12 28 Oeste 48 Oeste 0 -- -- 55
2018-04-11 16:00:00 10.4 28 Oeste 49 Oeste 0 -- -- 55
2018-04-11 15:00:00 10.3 22 Oeste 44 Oeste 0 -- -- 53
2018-04-11 14:00:00 9.7 21 Oeste 37 Oeste 0 -- -- 60
2018-04-11 13:00:00 9.5 15 Noroeste 35 Oeste 0 -- -- 52
2018-04-11 12:00:00 7.6 17 Oeste 33 Oeste 0 -- -- 61
2018-04-11 11:00:00 5.3 17 Oeste 33 Oeste 0 -- -- 76
2018-04-11 10:00:00 3.4 13 Oeste 23 Oeste 0 -- -- 83
2018-04-11 09:00:00 0.9 7 Oeste 16 Sudoeste 0 -- -- 90
2018-04-11 08:00:00 -1.4 12 Oeste 15 Sudoeste 0 -- -- 98
2018-04-11 07:00:00 -1 9 Oeste 14 Oeste 0 -- -- 97
2018-04-11 06:00:00 -0.4 9 Oeste 15 Oeste 0 -- -- 95
2018-04-11 05:00:00 -0.3 9 Oeste 14 Oeste 0 -- -- 98
2018-04-11 04:00:00 0.3 10 Oeste 16 Oeste 0 -- -- 100
2018-04-11 03:00:00 0.7 10 Oeste 16 Oeste 0 -- -- 100
2018-04-11 02:00:00 0.4 4 Oeste 11 Noroeste 0 -- -- 100
2018-04-11 01:00:00 1.4 6 Norte 9 Nordeste 0 -- -- 95
2018-04-11 00:00:00 1.6 7 Este 16 Nordeste 0 -- -- 98
2018-04-10 23:00:00 1.5 15 Nordeste 33 Nordeste 0.2 -- -- 97
2018-04-10 22:00:00 2.5 21 Nordeste 37 Nordeste 0 -- -- 93
2018-04-10 21:00:00 4.1 9 Sudoeste 24 Oeste 0 -- -- 91
2018-04-10 20:00:00 6.1 15 Oeste 33 Sudoeste 0 -- -- 76
2018-04-10 19:00:00 4.6 18 Sudoeste 37 Sudoeste 0 -- -- 88
2018-04-10 18:00:00 6.6 19 Oeste 28 Oeste 0 -- -- 73
2018-04-10 17:00:00 4.5 20 Oeste 33 Oeste 0 -- -- 81
2018-04-10 16:00:00 2 23 Oeste 41 Oeste 0.6 -- -- 96
2018-04-10 15:00:00 3.2 17 Sudoeste 31 Oeste 1.4 -- -- 97
2018-04-10 14:00:00 6.1 14 Sur 27 Sudoeste 0 -- -- 81
2018-04-10 13:00:00 5.2 18 Sudoeste 28 Oeste 0 -- -- 79
2018-04-10 12:00:00 5.9 16 Sudoeste 25 Oeste 0 -- -- 84
2018-04-10 11:00:00 4.3 15 Oeste 35 Oeste 0 -- -- 91
2018-04-10 10:00:00 3.8 19 Sudoeste 28 Sudoeste 0.2 -- -- 98
2018-04-10 09:00:00 3.4 19 Oeste 48 Sudoeste 1.2 -- -- 98
2018-04-10 08:00:00 3.8 31 Sudoeste 54 Sudoeste 2 -- -- 99
2018-04-10 07:00:00 4 31 Sudoeste 49 Sur 1.8 -- -- 99
2018-04-10 06:00:00 4 27 Sudoeste 48 Sudoeste 2.2 -- -- 99
2018-04-10 05:00:00 4 25 Sudoeste 45 Sudoeste 1 -- -- 99
2018-04-10 04:00:00 4.5 31 Sudoeste 53 Sudoeste 0.2 -- -- 95
2018-04-10 03:00:00 5.2 27 Sudoeste 39 Sudoeste 0 -- -- 99
2018-04-10 02:00:00 5.4 20 Sudoeste 33 Sudoeste 0 -- -- 100
2018-04-10 01:00:00 5 16 Sudoeste 24 Sudoeste 0 -- -- 100
2018-04-10 00:00:00 5.3 18 Sudoeste 26 Sudoeste 0 -- -- 100
2018-04-09 23:00:00 5.3 14 Sudoeste 21 Sudoeste 0 -- -- 100
2018-04-09 22:00:00 6.2 14 Sudoeste 23 Sudoeste 0 -- -- 100
2018-04-09 21:00:00 6.2 15 Sudoeste 21 Sudoeste 0 -- -- 98
2018-04-09 20:00:00 7.5 9 Sudoeste 20 Sudoeste 0.2 -- -- 94
2018-04-09 19:00:00 7.9 15 Sudoeste 21 Sur 0.2 -- -- 93
2018-04-09 18:00:00 6.8 10 Sudoeste 14 Sudoeste 1 -- -- 97
2018-04-09 17:00:00 7.3 11 Sudoeste 20 Sudoeste 0 -- -- 88
2018-04-09 16:00:00 6.9 15 Sudoeste 26 Sudoeste 0 -- -- 88
2018-04-09 15:00:00 5.2 13 Sudoeste 19 Sudoeste 0.2 -- -- 93
2018-04-09 14:00:00 5.1 5 Sudoeste 11 Sudoeste 0.6 -- -- 91
2018-04-09 13:00:00 4.2 8 Sudoeste 13 Sudoeste 0.2 -- -- 92
2018-04-09 12:00:00 3.5 8 Sudoeste 13 Sudoeste 0.6 -- -- 95
2018-04-09 11:00:00 2.8 6 Sudoeste 10 Sudoeste 0 -- -- 99
2018-04-09 10:00:00 2.2 5 Sudoeste 9 Sudoeste 0.4 -- -- 100
2018-04-09 09:00:00 1.7 5 Sudoeste 10 Sudoeste 0.2 -- -- 100
2018-04-09 08:00:00 1.5 6 Sudoeste 12 Sudoeste 0 -- -- 100
2018-04-09 07:00:00 1.7 8 Sudoeste 13 Sudoeste 0 -- -- 100
2018-04-09 06:00:00 1.6 5 Sudoeste 11 Sudoeste 0.4 -- -- 100
2018-04-09 05:00:00 2.1 8 Sudoeste 12 Sudoeste 0.6 -- -- 100
2018-04-09 04:00:00 2.3 7 Sudoeste 16 Sudoeste 0.4 -- -- 100
2018-04-09 03:00:00 2.3 10 Sudoeste 20 Sudoeste 0.4 -- -- 100
2018-04-09 02:00:00 2.4 14 Sudoeste 22 Sudoeste 0.4 -- -- 100
2018-04-09 01:00:00 2.8 13 Sudoeste 23 Sudoeste 1 -- -- 100
2018-04-09 00:00:00 3.4 11 Sudoeste 21 Sudoeste 0.2 -- -- 100
2018-04-08 23:00:00 3.8 15 Sudoeste 27 Sudoeste 0.2 -- -- 98
2018-04-08 22:00:00 4.9 12 Sudoeste 29 Sudoeste 0.6 -- -- 97
2018-04-08 21:00:00 6.1 26 Sudoeste 37 Sudoeste 0 -- -- 87
2018-04-08 20:00:00 8.2 23 Sudoeste 39 Sudoeste 0 -- -- 75
2018-04-08 19:00:00 10.1 19 Sudoeste 38 Sudoeste 0 -- -- 63
2018-04-08 18:00:00 10 13 Oeste 35 Sudoeste 0 -- -- 80
2018-04-08 17:00:00 10.6 24 Sudoeste 44 Oeste 0 -- -- 71
2018-04-08 16:00:00 10.4 24 Sudoeste 48 Sudoeste 0 -- -- 71
2018-04-08 15:00:00 10.6 21 Sudoeste 39 Sudoeste 0 -- -- 79
2018-04-08 14:00:00 7.8 27 Sudoeste 37 Sudoeste 0.2 -- -- 92
2018-04-08 13:00:00 7.8 24 Sudoeste 36 Sudoeste 0 -- -- 97
2018-04-08 12:00:00 7 18 Sudoeste 29 Sudoeste 0.2 -- -- 100
2018-04-08 11:00:00 5.4 19 Sudoeste 28 Sudoeste 0 -- -- 100
2018-04-08 10:00:00 4.8 15 Sudoeste 25 Sudoeste 0 -- -- 100
2018-04-08 09:00:00 4.2 12 Sudoeste 19 Sudoeste 0 -- -- 100
2018-04-08 08:00:00 3.9 14 Sudoeste 23 Sudoeste 0 -- -- 100
2018-04-08 07:00:00 3.9 13 Sudoeste 19 Sudoeste 0 -- -- 100
2018-04-08 06:00:00 3.8 11 Sudoeste 15 Sudoeste 0 -- -- 100
2018-04-08 05:00:00 3 3 Sudoeste 13 Oeste 0 -- -- 100
2018-04-08 04:00:00 2.8 7 Sudoeste 15 Sudoeste 0 -- -- 100
2018-04-08 03:00:00 3.4 11 Sudoeste 15 Sudoeste 0 -- -- 100
2018-04-08 02:00:00 3.7 11 Oeste 17 Sudoeste 0 -- -- 100
2018-04-08 01:00:00 3.3 10 Sudoeste 13 Sudoeste 0 -- -- 100
2018-04-08 00:00:00 3.6 11 Sudoeste 13 Sudoeste 0 -- -- 97
2018-04-07 23:00:00 4.6 9 Oeste 12 Oeste 0 -- -- 96
2018-04-07 22:00:00 5.1 10 Sur 13 Sudoeste 0 -- -- 92
2018-04-07 21:00:00 6.4 9 Sudoeste 25 Noroeste 0 -- -- 84
2018-04-07 20:00:00 6.7 17 Noroeste 33 Oeste 0 -- -- 82
2018-04-07 19:00:00 9.8 15 Sur 31 Sur 0 -- -- 71
2018-04-07 18:00:00 9.6 3 Oeste 40 Sur 0.2 -- -- 73
2018-04-07 17:00:00 12.1 9 Sudoeste 28 Oeste 0 -- -- 58
2018-04-07 16:00:00 11 15 Sudoeste 29 Sudoeste 0 -- -- 59
2018-04-07 15:00:00 9.1 18 Sudoeste 32 Sudoeste 0 -- -- 73
2018-04-07 14:00:00 9.4 22 Sudoeste 30 Sudoeste 0 -- -- 66
2018-04-07 13:00:00 8.4 18 Sudoeste 32 Sudoeste 0 -- -- 77
2018-04-07 12:00:00 7.8 19 Sudoeste 27 Sudoeste 0 -- -- 84
2018-04-07 11:00:00 6.5 10 Sudoeste 21 Sudoeste 0 -- -- 95
2018-04-07 10:00:00 4.9 13 Sudoeste 23 Sudoeste 0 -- -- 99
2018-04-07 09:00:00 4.6 10 Sudoeste 22 Sur 0 -- -- 100
2018-04-07 08:00:00 3.9 9 Sudoeste 15 Sur 0 -- -- 100
2018-04-07 07:00:00 3.7 7 Sur 11 Sur 0 -- -- 100
2018-04-07 06:00:00 4.1 4 Sudoeste 14 Sudoeste 0 -- -- 100
2018-04-07 05:00:00 4.4 8 Sudoeste 15 Sur 0 -- -- 100
2018-04-07 04:00:00 4.5 11 Sudoeste 18 Sudoeste 0 -- -- 100
2018-04-07 03:00:00 4.6 9 Sudoeste 17 Sudoeste 0 -- -- 100
2018-04-07 02:00:00 4.7 13 Sudoeste 23 Sudoeste 0 -- -- 100
2018-04-07 01:00:00 4.8 13 Sudoeste 23 Sudoeste 0.2 -- -- 100
2018-04-07 00:00:00 5.1 13 Sudoeste 26 Sudoeste 0.4 -- -- 99
2018-04-06 23:00:00 6.2 15 Sudoeste 34 Sudoeste 0.6 -- -- 100
2018-04-06 22:00:00 6.4 14 Sudoeste 22 Sudoeste 2.2 -- -- 100
2018-04-06 21:00:00 6.5 16 Sudoeste 43 Oeste 0.2 -- -- 96
2018-04-06 20:00:00 8.7 28 Oeste 51 Sudoeste 0 -- -- 77
2018-04-06 19:00:00 11.1 23 Oeste 49 Sur 0 -- -- 72
2018-04-06 18:00:00 14.8 37 Sur 57 Sur 0 -- -- 49
2018-04-06 17:00:00 15.8 34 Sur 59 Sudoeste 0 -- -- 49
2018-04-06 16:00:00 16.9 34 Sur 52 Sudoeste 0 -- -- 46
2018-04-06 15:00:00 15.5 33 Sur 49 Sudoeste 0 -- -- 49
2018-04-06 14:00:00 15.6 30 Sur 49 Sur 0 -- -- 48
2018-04-06 13:00:00 14.9 31 Sur 50 Sur 0 -- -- 54
2018-04-06 12:00:00 14.3 32 Sur 49 Sur 0 -- -- 57
2018-04-06 11:00:00 12.5 22 Sur 33 Sur 0 -- -- 68
2018-04-06 10:00:00 11 16 Sur 28 Sur 0 -- -- 74
2018-04-06 09:00:00 8.7 8 Sur 14 Sur 0 -- -- 80
2018-04-06 08:00:00 5.9 10 Sur 15 Sur 0 -- -- 89
2018-04-06 07:00:00 6.3 11 Sur 16 Sudeste 0 -- -- 87
2018-04-06 06:00:00 6.1 8 Sudeste 12 Sur 0 -- -- 90
2018-04-06 05:00:00 6.6 9 Sur 12 Sur 0 -- -- 89
2018-04-06 04:00:00 7.8 9 Sur 18 Sudoeste 0 -- -- 85
2018-04-06 03:00:00 9.4 12 Sudoeste 22 Sur 0 -- -- 80
2018-04-06 02:00:00 9.6 15 Sur 25 Sur 0 -- -- 79
2018-04-06 01:00:00 9.5 15 Sur 28 Sur 0 -- -- 80
2018-04-06 00:00:00 9.8 16 Sur 31 Sur 0 -- -- 76
2018-04-05 23:00:00 10.3 19 Sur 30 Sudoeste 0 -- -- 68
2018-04-05 22:00:00 11.3 16 Sudoeste 29 Sudoeste 0 -- -- 57
2018-04-05 21:00:00 11.4 9 Sur 22 Sur 0 -- -- 59
2018-04-05 20:00:00 15.2 17 Sur 25 Sur 0 -- -- 43
2018-04-05 19:00:00 16.2 13 Sur 27 Sur 0 -- -- 44
2018-04-05 18:00:00 14.8 14 Sur 27 Sur 0 -- -- 46
2018-04-05 17:00:00 15.2 18 Sur 38 Sudoeste 0 -- -- 43
2018-04-05 16:00:00 15 17 Sur 36 Sur 0 -- -- 41
2018-04-05 15:00:00 14.2 16 Sudoeste 28 Sudoeste 0 -- -- 46
2018-04-05 14:00:00 12.8 14 Sur 27 Sur 0 -- -- 51
2018-04-05 13:00:00 11.4 13 Sudeste 25 Sur 0 -- -- 63
2018-04-05 12:00:00 10.6 14 Sudeste 22 Sur 0 -- -- 66
2018-04-05 11:00:00 9.2 10 Este 16 Este 0 -- -- 81
2018-04-05 10:00:00 7.3 5 Este 8 Nordeste 0 -- -- 95
2018-04-05 09:00:00 1.6 7 Nordeste 10 Nordeste 0 -- -- 100
2018-04-05 08:00:00 3 0 Calma 7 Sudeste 0 -- -- 100
2018-04-05 07:00:00 2.5 5 Sudeste 9 Este 0 -- -- 100
2018-04-05 06:00:00 2 7 Este 8 Nordeste 0 -- -- 100
2018-04-05 05:00:00 3.3 5 Sur 10 Sur 0 -- -- 100
2018-04-05 04:00:00 3.3 6 Sudoeste 12 Sudoeste 0 -- -- 100
2018-04-05 03:00:00 3.7 6 Sur 13 Sudoeste 0 -- -- 98
2018-04-05 02:00:00 4.7 8 Sudoeste 13 Sudoeste 0 -- -- 96
2018-04-05 01:00:00 5.8 7 Sur 24 Sudoeste 0 -- -- 93
2018-04-05 00:00:00 6.6 13 Sudoeste 26 Sudoeste 0 -- -- 89
2018-04-04 23:00:00 7.3 15 Oeste 25 Sudoeste 0 -- -- 86
2018-04-04 22:00:00 7.1 11 Oeste 36 Sudoeste 0 -- -- 85
2018-04-04 21:00:00 8.5 16 Oeste 44 Sudoeste 0 -- -- 76
2018-04-04 20:00:00 9.6 28 Oeste 45 Oeste 0 -- -- 70
2018-04-04 19:00:00 10.8 37 Oeste 57 Sudoeste 0 -- -- 67
2018-04-04 18:00:00 10.2 27 Oeste 60 Oeste 0 -- -- 80
2018-04-04 17:00:00 10.9 30 Oeste 50 Sudoeste 0 -- -- 74
2018-04-04 16:00:00 8.7 26 Oeste 57 Sudoeste 0.2 -- -- 92
2018-04-04 15:00:00 11.1 36 Sudoeste 51 Sudoeste 0.4 -- -- 74
2018-04-04 14:00:00 9.1 28 Oeste 51 Oeste 0.2 -- -- 88
2018-04-04 13:00:00 7.6 27 Sudoeste 48 Sudoeste 0.6 -- -- 96
2018-04-04 12:00:00 7.4 28 Sudoeste 49 Sudoeste 0 -- -- 95
2018-04-04 11:00:00 6.5 31 Sudoeste 53 Sudoeste 0.2 -- -- 99
2018-04-04 10:00:00 5.9 26 Sudoeste 44 Sudoeste 0 -- -- 100
2018-04-04 09:00:00 5.4 25 Sudoeste 42 Sur 0 -- -- 100
2018-04-04 08:00:00 5.3 30 Sudoeste 53 Sudoeste 1 -- -- 99
2018-04-04 07:00:00 5.2 35 Sudoeste 50 Sudoeste 0.2 -- -- 99
2018-04-04 06:00:00 5.3 30 Sudoeste 51 Sur 0 -- -- 98
2018-04-04 05:00:00 5.2 31 Sudoeste 51 Sudoeste 0.2 -- -- 99
2018-04-04 04:00:00 5.1 32 Sudoeste 48 Sudoeste 0 -- -- 100
2018-04-04 03:00:00 4.8 24 Sudoeste 40 Sur 0.4 -- -- 99
2018-04-04 02:00:00 4.7 21 Sudoeste 42 Sudoeste 0.4 -- -- 100
2018-04-04 01:00:00 4.8 28 Sudoeste 41 Sudoeste 0 -- -- 99
2018-04-04 00:00:00 4.4 27 Sudoeste 51 Sudoeste 2.4 -- -- 97
2018-04-03 23:00:00 5.1 22 Oeste 47 Sudoeste 2 -- -- 98
2018-04-03 22:00:00 5.9 25 Sudoeste 52 Sudoeste 0.6 -- -- 97
2018-04-03 21:00:00 7 24 Sudoeste 44 Sur 0 -- -- 86
2018-04-03 20:00:00 7.3 29 Sudoeste 53 Sur 0 -- -- 83
2018-04-03 19:00:00 7.1 30 Sudoeste 60 Sudoeste 0 -- -- 88
2018-04-03 18:00:00 7 25 Sudoeste 51 Sudoeste 0.2 -- -- 93
2018-04-03 17:00:00 6 30 Sudoeste 58 Sudoeste 0.8 -- -- 96
2018-04-03 16:00:00 6.2 27 Oeste 57 Sudoeste 1.8 -- -- 96
2018-04-03 15:00:00 8.2 30 Sudoeste 55 Sudoeste 0.4 -- -- 89
2018-04-03 14:00:00 8.4 30 Sudoeste 70 Sudoeste 0 -- -- 84
2018-04-03 13:00:00 9.8 27 Sudoeste 44 Sudoeste 0.2 -- -- 84
2018-04-03 12:00:00 7.1 27 Sudoeste 44 Sudoeste 0.2 -- -- 97
2018-04-03 11:00:00 7.5 31 Sudoeste 50 Sudoeste 0 -- -- 89
2018-04-03 10:00:00 7.2 26 Sudoeste 45 Sudoeste 0.2 -- -- 94
2018-04-03 09:00:00 5.6 23 Sudoeste 52 Oeste 1.6 -- -- 98
2018-04-03 08:00:00 7 26 Sudoeste 57 Sudoeste 0.8 -- -- 97
2018-04-03 07:00:00 7.1 28 Sudoeste 53 Sur 1 -- -- 98
2018-04-03 06:00:00 7.2 26 Sudoeste 43 Sudoeste 0.6 -- -- 97
2018-04-03 05:00:00 7.3 23 Sur 45 Sudoeste 1.2 -- -- 98
2018-04-03 04:00:00 7.8 27 Sur 41 Sudoeste 0 -- -- 94
2018-04-03 03:00:00 7.8 19 Sudoeste 47 Sur 0 -- -- 95
2018-04-03 02:00:00 7.7 23 Sudoeste 45 Sur 0 -- -- 97
2018-04-03 01:00:00 7.7 28 Sudoeste 44 Sudoeste 0.2 -- -- 95
2018-04-03 00:00:00 8 18 Sur 30 Sudoeste 0 -- -- 91
2018-04-02 23:00:00 8.3 21 Sudoeste 41 Sudoeste 0 -- -- 85
2018-04-02 22:00:00 8.6 24 Sudoeste 38 Sudoeste 0 -- -- 89
2018-04-02 21:00:00 8.6 21 Sur 35 Sur 0 -- -- 95
2018-04-02 20:00:00 9.1 21 Sudoeste 36 Sudoeste 1 -- -- 97
2018-04-02 19:00:00 9.5 24 Sudoeste 44 Sudoeste 0.2 -- -- 93
2018-04-02 18:00:00 9.6 27 Sudoeste 49 Sur 0 -- -- 95
2018-04-02 17:00:00 9.7 21 Sudoeste 33 Sudoeste 0.2 -- -- 96
2018-04-02 16:00:00 9.3 19 Sudoeste 35 Sudoeste 0.4 -- -- 95
2018-04-02 15:00:00 9.1 14 Sudoeste 26 Sudoeste 0.4 -- -- 92
2018-04-02 14:00:00 9.8 20 Sudoeste 51 Sur 0 -- -- 83
2018-04-02 13:00:00 11.9 27 Sudoeste 48 Sudoeste 0 -- -- 66
2018-04-02 12:00:00 10.9 28 Sur 49 Sudoeste 0 -- -- 69
2018-04-02 11:00:00 10.4 29 Sur 42 Sur 0 -- -- 72
2018-04-02 10:00:00 9.2 22 Sur 29 Sur 0 -- -- 78
2018-04-02 09:00:00 8.6 19 Sur 31 Sur 0 -- -- 81
2018-04-02 08:00:00 8.3 15 Sur 26 Sudoeste 0 -- -- 81
2018-04-02 07:00:00 8.3 14 Sur 22 Sur 0 -- -- 80
2018-04-02 06:00:00 9 15 Sur 27 Sudoeste 0 -- -- 76
2018-04-02 05:00:00 9.3 15 Sur 37 Sur 0 -- -- 74
2018-04-02 04:00:00 10.4 19 Sudoeste 33 Sudoeste 0 -- -- 69
2018-04-02 03:00:00 9.9 14 Sudoeste 23 Sudoeste 0 -- -- 74
2018-04-02 02:00:00 10.3 16 Sudoeste 26 Sudoeste 0 -- -- 73
2018-04-02 01:00:00 10.3 14 Sur 27 Sur 0 -- -- 74
2018-04-02 00:00:00 10.3 13 Sur 28 Sudoeste 0 -- -- 74
2018-04-01 23:00:00 11.2 17 Sur 25 Sur 0 -- -- 69
2018-04-01 22:00:00 11.3 12 Sur 30 Sudoeste 0 -- -- 67
2018-04-01 21:00:00 12.4 19 Sur 32 Sudoeste 0 -- -- 60
2018-04-01 20:00:00 13.8 23 Sur 33 Sur 0 -- -- 54
2018-04-01 19:00:00 15.2 19 Sur 35 Sudoeste 0 -- -- 50
2018-04-01 18:00:00 15.3 19 Sur 38 Sur 0 -- -- 52
2018-04-01 17:00:00 15.4 23 Sur 42 Sur 0 -- -- 52
2018-04-01 16:00:00 16 24 Sur 39 Sur 0 -- -- 49
2018-04-01 15:00:00 14.9 21 Sur 34 Sur 0 -- -- 49
2018-04-01 14:00:00 13.9 21 Sur 31 Sur 0 -- -- 50
2018-04-01 13:00:00 11.8 19 Sur 30 Sur 0 -- -- 58
2018-04-01 12:00:00 9.6 12 Sur 21 Sur 0 -- -- 66
2018-04-01 11:00:00 7.1 5 Sur 10 Sur 0 -- -- 77
2018-04-01 10:00:00 5.3 6 Este 10 Nordeste 0 -- -- 90
2018-04-01 09:00:00 3.7 9 Nordeste 13 Nordeste 0 -- -- 95
2018-04-01 08:00:00 2.6 6 Este 8 Este 0 -- -- 95
2018-04-01 07:00:00 2.8 6 Sudeste 10 Este 0 -- -- 95
2018-04-01 06:00:00 3.7 2 Este 4 Este 0 -- -- 90
2018-04-01 05:00:00 4.1 2 Oeste 8 Sudoeste 0 -- -- 88
2018-04-01 04:00:00 4.7 5 Sudoeste 15 Oeste 0 -- -- 86
2018-04-01 03:00:00 5.2 9 Oeste 19 Oeste 0 -- -- 84
2018-04-01 02:00:00 5.6 11 Oeste 21 Oeste 0 -- -- 81
2018-04-01 01:00:00 5.9 13 Oeste 20 Oeste 0 -- -- 80
2018-04-01 00:00:00 6 12 Oeste 19 Oeste 0 -- -- 77
2018-03-31 23:00:00 6.1 10 Sudoeste 16 Sudoeste 0 -- -- 73
2018-03-31 22:00:00 5.7 11 Sudoeste 14 Sudoeste 0 -- -- 71
2018-03-31 21:00:00 7 12 Oeste 33 Sudoeste 0 -- -- 64
2018-03-31 20:00:00 8.8 20 Sudoeste 36 Sudoeste 0 -- -- 54
2018-03-31 19:00:00 9.5 23 Oeste 34 Oeste 0 -- -- 47
2018-03-31 18:00:00 10.5 21 Oeste 40 Sudoeste 0 -- -- 44
2018-03-31 17:00:00 10.8 23 Oeste 39 Noroeste 0 -- -- 43
2018-03-31 16:00:00 9.4 17 Oeste 32 Oeste 0 -- -- 50
2018-03-31 15:00:00 8.9 20 Oeste 43 Sudoeste 0 -- -- 59
2018-03-31 14:00:00 8.5 24 Oeste 39 Oeste 0 -- -- 56
2018-03-31 13:00:00 7.1 24 Oeste 41 Sudoeste 0 -- -- 59
2018-03-31 12:00:00 6.5 23 Oeste 41 Oeste 0 -- -- 72
2018-03-31 11:00:00 5.4 22 Oeste 33 Oeste 0 -- -- 77
2018-03-31 10:00:00 3.8 15 Oeste 31 Oeste 0 -- -- 90
2018-03-31 09:00:00 1.8 15 Sudoeste 29 Oeste 0 -- -- 96
2018-03-31 08:00:00 1.6 18 Oeste 29 Oeste 0 -- -- 98
2018-03-31 07:00:00 1.3 13 Sudoeste 30 Sudoeste 0 -- -- 100
2018-03-31 06:00:00 1.4 24 Sudoeste 42 Sudoeste 0 -- -- 100
2018-03-31 05:00:00 1.2 24 Sudoeste 37 Sudoeste 0 -- -- 100
2018-03-31 04:00:00 1.1 21 Sudoeste 37 Oeste 0 -- -- 100
2018-03-31 03:00:00 1 24 Sudoeste 42 Sudoeste 0 -- -- 100
2018-03-31 02:00:00 1.1 26 Oeste 42 Sudoeste 0 -- -- 99
2018-03-31 01:00:00 1.1 26 Sudoeste 42 Sudoeste 0.2 -- -- 99
2018-03-31 00:00:00 0.7 22 Sudoeste 38 Sudoeste 0.2 -- -- 100
2018-03-30 23:00:00 0.1 17 Oeste 40 Oeste 0.2 -- -- 100
2018-03-30 22:00:00 0.3 19 Oeste 45 Oeste 0.6 -- -- 100
2018-03-30 21:00:00 0.2 18 Oeste 33 Oeste 1.2 -- -- 100
2018-03-30 20:00:00 0.3 20 Sudoeste 48 Sudoeste 1.2 -- -- 100
2018-03-30 19:00:00 1.4 28 Sudoeste 43 Sudoeste 1 -- -- 100
2018-03-30 18:00:00 0.1 19 Sudoeste 45 Sudoeste 1.4 -- -- 100
2018-03-30 17:00:00 1.6 32 Sudoeste 50 Sudoeste 1.4 -- -- 99
2018-03-30 16:00:00 2 28 Sudoeste 43 Sudoeste 1 -- -- 97
2018-03-30 15:00:00 1.7 30 Oeste 58 Sudoeste 0.4 -- -- 95
2018-03-30 14:00:00 6.1 28 Sudoeste 51 Sudoeste 0 -- -- 64
2018-03-30 13:00:00 5.4 33 Sudoeste 49 Sudoeste 0 -- -- 75
2018-03-30 12:00:00 3.7 29 Sudoeste 47 Sudoeste 0 -- -- 80
2018-03-30 11:00:00 2 18 Sudoeste 37 Sudoeste 0 -- -- 93
2018-03-30 10:00:00 1.9 22 Sudoeste 32 Sudoeste 0 -- -- 94
2018-03-30 09:00:00 0.2 18 Sudoeste 29 Sudoeste 0 -- -- 100
2018-03-30 08:00:00 -0.1 11 Sudoeste 29 Oeste 0 -- -- 100
2018-03-30 07:00:00 0 17 Oeste 26 Oeste 0 -- -- 100
2018-03-30 06:00:00 -0.1 13 Sudoeste 32 Sudoeste 0.2 -- -- 100
2018-03-30 05:00:00 0.7 24 Sudoeste 37 Sudoeste 0 -- -- 97
2018-03-30 04:00:00 1.1 24 Oeste 47 Oeste 0 -- -- 95
2018-03-30 03:00:00 1.9 25 Oeste 43 Oeste 0 -- -- 95
2018-03-30 02:00:00 2.4 28 Sudoeste 50 Sudoeste 0.6 -- -- 99
2018-03-30 01:00:00 2.7 30 Sudoeste 53 Sudoeste 1.2 -- -- 100
2018-03-30 00:00:00 1.4 19 Sudoeste 41 Sudoeste 3.2 -- -- 100
2018-03-29 23:00:00 3.8 30 Sudoeste 45 Sudoeste 2.8 -- -- 99
2018-03-29 22:00:00 3.4 31 Sudoeste 48 Sudoeste 1.4 -- -- 98
2018-03-29 21:00:00 4.3 25 Sudoeste 43 Sudoeste 0.8 -- -- 98
2018-03-29 20:00:00 4.4 28 Sudoeste 44 Sudoeste 1.2 -- -- 95
2018-03-29 19:00:00 5.9 21 Sudoeste 48 Sudoeste 0 -- -- 86
2018-03-29 18:00:00 6.6 30 Sudoeste 52 Oeste 0 -- -- 75
2018-03-29 17:00:00 8.3 28 Sudoeste 43 Sudoeste 0 -- -- 57
2018-03-29 16:00:00 8.1 24 Sudoeste 38 Sur 0 -- -- 56
2018-03-29 15:00:00 7.7 22 Sudoeste 38 Sudoeste 0 -- -- 64
2018-03-29 14:00:00 8.5 22 Sudoeste 44 Sudoeste 0 -- -- 58
2018-03-29 13:00:00 6.5 27 Sudoeste 37 Sudoeste 0 -- -- 63
2018-03-29 12:00:00 5.2 24 Oeste 37 Oeste 0 -- -- 70
2018-03-29 11:00:00 5.1 22 Sudoeste 34 Sudoeste 0 -- -- 71
2018-03-29 10:00:00 4 21 Sudoeste 30 Sudoeste 0 -- -- 84
2018-03-29 09:00:00 2.5 10 Sudoeste 22 Oeste 0 -- -- 82
2018-03-29 08:00:00 1 12 Oeste 26 Oeste 0 -- -- 87
2018-03-29 07:00:00 1.6 12 Oeste 25 Oeste 0 -- -- 89
2018-03-29 06:00:00 2.1 8 Oeste 15 Oeste 0 -- -- 89
2018-03-29 05:00:00 3 9 Sudoeste 14 Sudoeste 0 -- -- 96
2018-03-29 04:00:00 3.4 10 Sudoeste 15 Sudoeste 0 -- -- 98
2018-03-29 03:00:00 3.9 12 Sudoeste 16 Oeste 0 -- -- 96
2018-03-29 02:00:00 4 8 Sudoeste 13 Sudoeste 0 -- -- 96
2018-03-29 01:00:00 5.5 7 Sudoeste 27 Oeste 0 -- -- 95
2018-03-29 00:00:00 6.3 11 Sudoeste 21 Sudoeste 0 -- -- 99
2018-03-28 23:00:00 7.1 14 Oeste 23 Sudoeste 0 -- -- 97
2018-03-28 22:00:00 7 8 Sudoeste 15 Oeste 0 -- -- 98
2018-03-28 21:00:00 7 14 Oeste 31 Oeste 0.2 -- -- 96
2018-03-28 20:00:00 8.8 17 Oeste 35 Oeste 0 -- -- 85
2018-03-28 19:00:00 9.6 16 Oeste 35 Sudoeste 0 -- -- 81
2018-03-28 18:00:00 10.8 27 Oeste 40 Oeste 0 -- -- 70
2018-03-28 17:00:00 11 22 Sudoeste 45 Sudoeste 0 -- -- 71
2018-03-28 16:00:00 13 24 Oeste 42 Sudoeste 0 -- -- 62
2018-03-28 15:00:00 10.8 20 Oeste 35 Sudoeste 0 -- -- 69
2018-03-28 14:00:00 10 21 Oeste 37 Sudoeste 0 -- -- 72
2018-03-28 13:00:00 9.5 21 Oeste 39 Oeste 0 -- -- 72
2018-03-28 12:00:00 9.5 24 Oeste 44 Oeste 0 -- -- 70
2018-03-28 11:00:00 8.2 25 Oeste 36 Sudoeste 0 -- -- 74
2018-03-28 10:00:00 5.6 16 Sudoeste 24 Sudoeste 0 -- -- 84
2018-03-28 09:00:00 5 14 Sudoeste 21 Sudoeste 0 -- -- 84
2018-03-28 08:00:00 4 13 Sudoeste 28 Sudoeste 0 -- -- 87
2018-03-28 07:00:00 4.4 12 Sudoeste 15 Sudoeste 0 -- -- 86
2018-03-28 06:00:00 5.2 14 Sudoeste 20 Sudoeste 0 -- -- 79
2018-03-28 05:00:00 6.9 8 Sudoeste 16 Sudoeste 0 -- -- 69
2018-03-28 04:00:00 6.2 15 Sudoeste 28 Sudoeste 0 -- -- 66
2018-03-28 03:00:00 6.7 14 Sudoeste 18 Sudoeste 0 -- -- 58
2018-03-28 02:00:00 8.3 13 Sudoeste 17 Sudoeste 0 -- -- 54
2018-03-28 01:00:00 8.8 15 Sudoeste 17 Sudoeste 0 -- -- 58
2018-03-28 00:00:00 9.6 10 Sudoeste 14 Sudoeste 0 -- -- 54
2018-03-27 23:00:00 9.5 7 Sudoeste 18 Oeste 0 -- -- 51
2018-03-27 22:00:00 12.2 13 Noroeste 23 Noroeste 0 -- -- 43
2018-03-27 21:00:00 13.2 13 Noroeste 23 Noroeste 0 -- -- 42
2018-03-27 20:00:00 16.9 20 Oeste 42 Noroeste 0 -- -- 31
2018-03-27 19:00:00 18.1 33 Noroeste 48 Noroeste 0 -- -- 26
2018-03-27 18:00:00 19.8 26 Noroeste 43 Noroeste 0 -- -- 27
2018-03-27 17:00:00 19.6 16 Sudoeste 35 Sudoeste 0 -- -- 38
2018-03-27 16:00:00 18.2 16 Sudoeste 28 Oeste 0 -- -- 51
2018-03-27 15:00:00 16.5 12 Oeste 26 Sudoeste 0 -- -- 55
2018-03-27 14:00:00 16 8 Sudoeste 23 Oeste 0 -- -- 54
2018-03-27 13:00:00 14.1 13 Sudoeste 22 Sudoeste 0 -- -- 62
2018-03-27 12:00:00 12.1 12 Sudoeste 21 Sudoeste 0 -- -- 70
2018-03-27 11:00:00 9.4 12 Sudoeste 22 Sudoeste 0 -- -- 82
2018-03-27 10:00:00 5.9 18 Sudoeste 26 Sudoeste 0 -- -- 99
2018-03-27 09:00:00 5 15 Sudoeste 24 Sudoeste 0 -- -- 100
2018-03-27 08:00:00 5.1 18 Sudoeste 27 Sudoeste 0 -- -- 100
2018-03-27 07:00:00 5.3 15 Sudoeste 23 Sudoeste 0 -- -- 100
2018-03-27 06:00:00 5 16 Sudoeste 28 Sur 0 -- -- 99
2018-03-27 05:00:00 4.8 13 Sudoeste 21 Sudoeste 0 -- -- 97
2018-03-27 04:00:00 4.8 13 Sudoeste 21 Sudoeste 0 -- -- 97
2018-03-27 03:00:00 4.9 13 Sudoeste 17 Sudoeste 0 -- -- 93
2018-03-27 02:00:00 6.1 12 Oeste 15 Sudoeste 0 -- -- 90
2018-03-27 01:00:00 4.9 8 Sudoeste 12 Sudoeste 0 -- -- 95
2018-03-27 00:00:00 6.7 11 Sudoeste 14 Sudoeste 0 -- -- 85
2018-03-26 23:00:00 8 8 Sudoeste 16 Oeste 0 -- -- 78
2018-03-26 22:00:00 9.5 11 Oeste 24 Noroeste 0 -- -- 71
2018-03-26 21:00:00 11 14 Noroeste 28 Noroeste 0 -- -- 64
2018-03-26 20:00:00 12.6 6 Oeste 21 Sudoeste 0 -- -- 53
2018-03-26 19:00:00 13.5 12 Oeste 29 Sudoeste 0 -- -- 48
2018-03-26 18:00:00 12.8 17 Sudoeste 32 Oeste 0 -- -- 46
2018-03-26 17:00:00 13.5 14 Sudoeste 25 Oeste 0 -- -- 41
2018-03-26 16:00:00 13.2 10 Sudoeste 28 Sudoeste 0 -- -- 44
2018-03-26 15:00:00 11.4 10 Sudoeste 26 Noroeste 0 -- -- 38
2018-03-26 14:00:00 11 13 Sur 21 Sur 0 -- -- 37
2018-03-26 13:00:00 9.6 10 Sudoeste 17 Sur 0 -- -- 38
2018-03-26 12:00:00 9.6 3 Noroeste 14 Oeste 0 -- -- 38
2018-03-26 11:00:00 7.2 6 Sur 10 Sur 0 -- -- 43
2018-03-26 10:00:00 6.2 3 Sur 5 Sudoeste 0 -- -- 50
2018-03-26 09:00:00 1.1 3 Sur 9 Oeste 0 -- -- 73
2018-03-26 08:00:00 -0.5 8 Oeste 9 Oeste 0 -- -- 76
2018-03-26 07:00:00 -1.2 3 Sudoeste 9 Oeste 0 -- -- 79
2018-03-26 06:00:00 -0.5 5 Oeste 13 Norte 0 -- -- 74
2018-03-26 05:00:00 -0.4 4 Noroeste 12 Noroeste 0 -- -- 78
2018-03-26 04:00:00 -0.4 8 Noroeste 13 Noroeste 0 -- -- 79
2018-03-26 03:00:00 -0.1 6 Noroeste 13 Norte 0 -- -- 77
2018-03-26 02:00:00 1.2 8 Norte 11 Norte 0 -- -- 71
2018-03-26 01:00:00 1.7 11 Noroeste 19 Noroeste 0 -- -- 68
2018-03-26 00:00:00 2.2 8 Oeste 14 Oeste 0 -- -- 63
2018-03-25 23:00:00 3.7 10 Noroeste 21 Noroeste 0 -- -- 60
2018-03-25 22:00:00 4.4 6 Sur 27 Noroeste 0 -- -- 55
2018-03-25 21:00:00 6.5 17 Sudoeste 27 Noroeste 0 -- -- 46
2018-03-25 20:00:00 9.8 16 Noroeste 32 Norte 0 -- -- 43
2018-03-25 19:00:00 11 19 Oeste 33 Noroeste 0 -- -- 36
2018-03-25 18:00:00 12.2 21 Noroeste 36 Noroeste 0 -- -- 31
2018-03-25 17:00:00 12.3 25 Noroeste 41 Noroeste 0 -- -- 36
2018-03-25 16:00:00 11.8 6 Oeste 26 Oeste 0 -- -- 35
2018-03-25 15:00:00 11.2 15 Oeste 26 Oeste 0 -- -- 36
2018-03-25 14:00:00 10.3 11 Sudoeste 27 Oeste 0 -- -- 43
2018-03-25 13:00:00 9.7 8 Noroeste 25 Noroeste 0 -- -- 47
2018-03-25 12:00:00 8.1 13 Oeste 24 Noroeste 0 -- -- 58
2018-03-25 11:00:00 6.5 14 Noroeste 24 Noroeste 0 -- -- 62
2018-03-25 10:00:00 3.5 12 Oeste 17 Oeste 0 -- -- 86
2018-03-25 09:00:00 1.1 9 Sudoeste 15 Oeste 0 -- -- 96
2018-03-25 08:00:00 0.5 11 Oeste 19 Oeste 0 -- -- 99
2018-03-25 07:00:00 1.2 12 Oeste 18 Oeste 0 -- -- 97
2018-03-25 06:00:00 1.3 10 Oeste 30 Sudoeste 0 -- -- 97
2018-03-25 05:00:00 1.5 18 Sudoeste 23 Sudoeste 0 -- -- 97
2018-03-25 03:00:00 1.8 16 Sudoeste 26 Oeste 0 -- -- 93
2018-03-25 01:00:00 2.4 18 Sudoeste 28 Oeste 0 -- -- 88
2018-03-25 00:00:00 2.7 22 Sudoeste 33 Oeste 0 -- -- 85
2018-03-24 23:00:00 2.8 10 Oeste 35 Oeste 0 -- -- 82
2018-03-24 22:00:00 3 26 Oeste 38 Oeste 0 -- -- 85
2018-03-24 21:00:00 3.5 15 Sudoeste 43 Oeste 0 -- -- 80
2018-03-24 20:00:00 4.6 27 Oeste 42 Oeste 0 -- -- 74
2018-03-24 19:00:00 5.3 18 Oeste 41 Oeste 0 -- -- 74
2018-03-24 18:00:00 5.8 29 Oeste 49 Oeste 0 -- -- 73
2018-03-24 17:00:00 6.9 28 Oeste 52 Noroeste 0 -- -- 71
2018-03-24 16:00:00 8 36 Oeste 59 Oeste 0 -- -- 67
2018-03-24 15:00:00 8 35 Oeste 68 Oeste 0 -- -- 73
2018-03-24 14:00:00 7.7 37 Oeste 71 Oeste 0 -- -- 77
2018-03-24 13:00:00 6.7 40 Oeste 73 Oeste 0 -- -- 74
2018-03-24 12:00:00 6.5 46 Oeste 72 Oeste 0 -- -- 75
2018-03-24 11:00:00 5.2 42 Oeste 74 Sudoeste 0 -- -- 79
2018-03-24 10:00:00 4.4 41 Oeste 66 Oeste 0 -- -- 80
2018-03-24 09:00:00 2.6 31 Oeste 68 Oeste 0 -- -- 91
2018-03-24 08:00:00 1.3 27 Oeste 49 Oeste 0 -- -- 94
2018-03-24 07:00:00 0.6 30 Oeste 51 Oeste 0 -- -- 98
2018-03-24 06:00:00 1.4 24 Oeste 46 Oeste 0 -- -- 88
2018-03-24 05:00:00 0.7 28 Oeste 46 Oeste 0 -- -- 90
2018-03-24 04:00:00 0.4 21 Oeste 40 Sudoeste 0 -- -- 94
2018-03-24 03:00:00 0.5 24 Oeste 33 Sudoeste 0 -- -- 96
2018-03-24 02:00:00 1.7 22 Oeste 36 Oeste 0 -- -- 92
2018-03-24 01:00:00 1.5 20 Oeste 36 Oeste 0 -- -- 93
2018-03-24 00:00:00 1.9 23 Oeste 44 Oeste 0 -- -- 89
2018-03-23 23:00:00 2.5 30 Oeste 47 Oeste 0.2 -- -- 88
2018-03-23 22:00:00 2.6 26 Oeste 62 Oeste 4.6 -- -- 96
2018-03-23 21:00:00 6.3 30 Sudoeste 60 Sudoeste 0.6 -- -- 99
2018-03-23 20:00:00 6.9 35 Sudoeste 59 Sudoeste 0.2 -- -- 95
2018-03-23 19:00:00 7.4 34 Sudoeste 54 Sudoeste 0 -- -- 85
2018-03-23 18:00:00 8.8 35 Sudoeste 55 Sudoeste 0 -- -- 79
2018-03-23 17:00:00 9.4 26 Sudoeste 48 Sudoeste 0.2 -- -- 87
2018-03-23 16:00:00 9.2 22 Sudoeste 43 Oeste 0 -- -- 99
2018-03-23 15:00:00 7.4 20 Sudoeste 30 Sudoeste 0 -- -- 100
2018-03-23 14:00:00 6.5 16 Sudoeste 32 Sudoeste 0 -- -- 100
2018-03-23 13:00:00 5.7 19 Sudoeste 27 Sudoeste 0 -- -- 100
2018-03-23 12:00:00 5.3 13 Sudoeste 24 Sudoeste 0 -- -- 100
2018-03-23 11:00:00 4.6 15 Sudoeste 22 Sudoeste 0 -- -- 99
2018-03-23 10:00:00 4.4 12 Sudoeste 18 Sudoeste 0 -- -- 95
2018-03-23 09:00:00 3.9 12 Sudoeste 22 Sudoeste 0 -- -- 91
2018-03-23 08:00:00 4 18 Sudoeste 29 Sudoeste 0 -- -- 88
2018-03-23 07:00:00 4 20 Sudoeste 31 Sudoeste 0 -- -- 85
2018-03-23 06:00:00 4.3 20 Sudoeste 30 Sudoeste 0 -- -- 78
2018-03-23 05:00:00 4.3 20 Sudoeste 31 Sudoeste 0 -- -- 82
2018-03-23 04:00:00 4.1 23 Sudoeste 31 Sudoeste 0 -- -- 82
2018-03-23 03:00:00 4.5 18 Sudoeste 26 Oeste 0 -- -- 82
2018-03-23 02:00:00 5 18 Sudoeste 24 Sudoeste 0 -- -- 81
2018-03-23 01:00:00 5.2 13 Sudoeste 23 Oeste 0 -- -- 81
2018-03-23 00:00:00 5.2 14 Sudoeste 21 Oeste 0 -- -- 76